Terminal Aerodrome Forecast
Issued by NWS Jackson, KY

Home | Current Version | Previous Version | Text Only | Print | Product List | Glossary On
Versions: 1 2 3 4 5 6 7 8 9 10 11 12 13 14
566
FTUS43 KJKL 261720
TAFLOZ
TAF
KLOZ 261720Z 2618/2718 08003KT P6SM SCT050
     FM270900 00000KT 2SM BR SCT003
     FM271300 13003KT P6SM FEW035=

USA.gov is the U.S. government's official web portal to all federal, state and local government web resources and services.